Decoded Metar for VTBS (BANGKOK in THAILAND) (IATA:BKK) | Meteo·Mobile Aviation Weather
aviador You're here:

VTBS Decoded Metar

BANGKOK in THAILAND
Report Time2019-10-22 14:00:00
UTC Time2019-10-22 14:19:45
Flight Rules vfr VFR
Wind200° at 04 kt
W.Decomp.*RWY 19: 3.9 kt HW 0.7 kt RCW
Visibility8000 m
Phenomena:N/A
Clouds:Few 020 Hf
Expected CloudBase > 2,000 ft AGL from Temp-Dew spread
CeilingNone
Temp29°C (ISA +14)
Dew Point24°C (74% RH)
Heat Index33.5°C
QNH1009 hPa
Density Alt2,146 ft
Elevation10 ft
Report Wrong Elevation
Raw Report
VTBS 221400Z 20004KT 8000 FEW020 29/24 Q1009 NOSIG=

Extra information for VTBS:More info

Metar Taf Metar & Taf Last 4 Metars F.Rules Stats Wind Profile Meteogram Temp Stats Airport Information Weather charts Add Link Nearby VenuesMetar ALERT Operation Metar Decoded Social comments